Terminal Aerodrome Forecast
Issued by NWS

Home | Current Version | Previous Version | Text Only | Print | Product List | Glossary On
Versions: 1 2 3 4 5 6 7 8 9 10 11 12 13 14 15 16 17 18 19 20 21
000
FTUS44 KLZK 301413 AAD
TAFADF
TAF AMD
KADF 301413Z 3014/3112 00000KT P6SM FEW005
     FM301600 VRB05KT P6SM VCSH SCT025
     FM301800 25006KT P6SM VCTS SCT040CB BKN250
     FM310100 VRB03KT 6SM BR SCT015 BKN060
      TEMPO 3109/3112 3SM BR OVC015=

USA.gov is the U.S. government's official web portal to all federal, state and local government web resources and services.